Time;durP1;ratioP1;P1;durP2;ratioP2;P2;SDS_P1;SDS_P2;PMS_P1;PMS_P2;Temp;Humidity;BMP_temperature;BMP_pressure;BME280_temperature;BME280_humidity;BME280_pressure;Samples;Min_cycle;Max_cycle;Signal;HPM_P1;HPM_P2
2021/07/20 00:00:15;;;;;;;34.15;25.38;;;;;;;20.31;100.00;94523.63;5108541;27;20044;-76
2021/07/20 00:02:45;;;;;;;34.45;25.65;;;;;;;20.30;100.00;94527.31;5111327;27;20047;-76
2021/07/20 00:05:15;;;;;;;33.25;26.58;;;;;;;20.25;100.00;94532.72;5106891;28;20038;-76
2021/07/20 00:07:42;;;;;;;33.95;25.77;;;;;;;20.21;100.00;94524.59;5112017;27;20573;-76
2021/07/20 00:10:17;;;;;;;34.90;25.77;;;;;;;20.11;100.00;94529.34;5106169;28;20047;-74
2021/07/20 00:12:43;;;;;;;41.20;28.85;;;;;;;20.12;100.00;94528.28;5109450;27;20513;-75
2021/07/20 00:15:12;;;;;;;36.30;26.25;;;;;;;20.17;100.00;94522.88;5108213;27;20040;-75
2021/07/20 00:17:42;;;;;;;33.53;25.88;;;;;;;20.18;100.00;94525.19;5109614;27;20500;-75
2021/07/20 00:20:14;;;;;;;36.03;24.33;;;;;;;20.01;100.00;94515.28;5107631;28;20047;-75
2021/07/20 00:22:41;;;;;;;39.08;25.60;;;;;;;20.01;100.00;94520.56;5107666;28;20040;-75
2021/07/20 00:25:09;;;;;;;40.97;24.83;;;;;;;20.01;100.00;94517.13;5107325;27;20512;-76
2021/07/20 00:27:36;;;;;;;37.28;24.75;;;;;;;19.95;100.00;94521.75;5113213;27;20050;-76
2021/07/20 00:30:04;;;;;;;36.97;25.48;;;;;;;19.94;100.00;94514.91;5091490;28;20512;-75
2021/07/20 00:32:32;;;;;;;45.25;23.92;;;;;;;19.80;100.00;94503.56;5108858;27;20049;-76
2021/07/20 00:34:58;;;;;;;40.58;25.13;;;;;;;19.79;100.00;94507.28;5089182;28;20497;-76
2021/07/20 00:37:26;;;;;;;34.08;23.38;;;;;;;19.84;100.00;94515.09;5110281;27;20110;-76
2021/07/20 00:39:53;;;;;;;33.65;24.23;;;;;;;19.78;100.00;94511.00;5108566;27;20040;-76
2021/07/20 00:42:20;;;;;;;38.83;23.90;;;;;;;19.78;100.00;94521.59;5091406;27;20088;-76
2021/07/20 00:44:47;;;;;;;34.78;22.35;;;;;;;19.65;100.00;94502.78;5089980;28;20519;-76
2021/07/20 00:47:14;;;;;;;36.40;23.88;;;;;;;19.68;100.00;94512.75;5092746;27;20857;-75
2021/07/20 00:49:41;;;;;;;39.40;25.95;;;;;;;19.60;100.00;94515.31;5090376;28;20043;-76
2021/07/20 00:52:09;;;;;;;41.75;22.50;;;;;;;19.53;100.00;94514.94;5088715;28;20079;-75
2021/07/20 00:54:37;;;;;;;38.78;24.35;;;;;;;19.44;100.00;94506.91;5089453;28;20047;-76
2021/07/20 00:57:04;;;;;;;39.40;25.35;;;;;;;19.45;100.00;94508.50;5107666;27;20039;-75
2021/07/20 00:59:32;;;;;;;36.22;23.13;;;;;;;19.43;100.00;94508.00;5090917;28;20122;-76
2021/07/20 01:01:59;;;;;;;32.85;21.15;;;;;;;19.43;100.00;94505.38;5091162;27;20051;-75
2021/07/20 01:04:26;;;;;;;31.40;22.17;;;;;;;19.32;100.00;94509.25;5109283;27;20035;-74
2021/07/20 01:06:56;;;;;;;32.10;22.17;;;;;;;19.16;100.00;94501.66;5108009;27;20042;-75
2021/07/20 01:09:25;;;;;;;32.00;20.13;;;;;;;19.14;100.00;94497.72;5108442;27;20043;-75
2021/07/20 01:11:54;;;;;;;27.48;20.17;;;;;;;19.18;100.00;94494.22;5091021;27;20043;-75
2021/07/20 01:14:23;;;;;;;30.42;22.48;;;;;;;19.11;100.00;94493.81;5090369;27;20496;-75
2021/07/20 01:16:50;;;;;;;30.00;22.02;;;;;;;19.10;100.00;94486.97;5092267;27;20058;-76
2021/07/20 01:19:18;;;;;;;26.48;20.40;;;;;;;19.19;100.00;94500.25;5110964;27;20158;-75
2021/07/20 01:21:51;;;;;;;29.00;20.38;;;;;;;19.05;100.00;94505.53;5087147;28;20138;-75
2021/07/20 01:24:19;;;;;;;32.15;21.05;;;;;;;19.02;100.00;94503.50;5109535;27;20043;-74
2021/07/20 01:26:49;;;;;;;29.27;21.63;;;;;;;19.06;100.00;94507.09;5090709;27;20054;-74
2021/07/20 01:29:17;;;;;;;28.48;21.83;;;;;;;19.00;100.00;94503.00;5107804;27;20078;-74
2021/07/20 01:31:47;;;;;;;35.17;22.17;;;;;;;18.96;100.00;94507.28;5109285;27;20039;-74
2021/07/20 01:34:18;;;;;;;34.47;22.30;;;;;;;18.93;100.00;94507.88;5109752;27;20047;-75
2021/07/20 01:36:48;;;;;;;32.03;22.10;;;;;;;18.78;100.00;94506.22;5090312;28;20069;-74
2021/07/20 01:39:18;;;;;;;38.40;22.67;;;;;;;18.88;100.00;94504.22;5108943;27;20032;-75
2021/07/20 01:41:46;;;;;;;30.27;21.27;;;;;;;18.86;100.00;94514.31;5089351;28;20941;-75
2021/07/20 01:44:15;;;;;;;37.28;22.65;;;;;;;18.87;100.00;94512.44;5105380;28;20055;-74
2021/07/20 01:46:54;;;;;;;35.17;22.25;;;;;;;18.82;100.00;94497.50;5092498;28;20046;-74
2021/07/20 01:49:23;;;;;;;32.95;22.65;;;;;;;18.87;100.00;94507.97;5109348;27;20518;-74
2021/07/20 01:51:57;;;;;;;30.63;21.98;;;;;;;18.90;100.00;94517.91;5089070;28;20508;-74
2021/07/20 01:54:25;;;;;;;33.47;23.38;;;;;;;18.79;100.00;94507.81;5089457;28;20168;-74
2021/07/20 01:56:53;;;;;;;38.15;22.67;;;;;;;18.81;100.00;94510.94;5087688;28;20127;-74
2021/07/20 01:59:27;;;;;;;30.02;21.10;;;;;;;18.76;100.00;94509.16;5090152;28;20048;-74
2021/07/20 02:02:48;;;;;;;31.98;22.40;;;;;;;18.68;100.00;94517.75;5106852;28;20040;-74
2021/07/20 02:10:43;;;;;;;36.80;23.10;;;;;;;18.50;100.00;94506.94;5091362;28;20044;-74
2021/07/20 02:13:29;;;;;;;32.40;20.65;;;;;;;18.56;100.00;94520.06;5092496;28;20538;-73
2021/07/20 02:16:08;;;;;;;32.28;22.25;;;;;;;18.43;100.00;94517.09;5094027;28;20047;-73
2021/07/20 02:18:46;;;;;;;36.97;25.13;;;;;;;18.23;100.00;94491.03;5111349;27;20038;-73
2021/07/20 02:21:26;;;;;;;36.92;23.65;;;;;;;18.48;100.00;94527.56;5092401;27;20602;-74
2021/07/20 02:23:53;;;;;;;32.45;22.42;;;;;;;18.44;100.00;94529.22;5112115;27;20039;-73
2021/07/20 02:26:24;;;;;;;31.17;23.45;;;;;;;18.39;100.00;94526.66;5093447;28;20057;-74
2021/07/20 02:28:53;;;;;;;31.38;23.90;;;;;;;18.37;100.00;94523.50;5089440;28;20043;-74
2021/07/20 02:31:21;;;;;;;37.30;23.02;;;;;;;18.32;100.00;94526.22;5092039;28;20040;-74
2021/07/20 02:33:50;;;;;;;37.35;22.50;;;;;;;18.34;100.00;94524.09;5092706;27;20047;-75
2021/07/20 02:36:19;;;;;;;43.65;23.92;;;;;;;18.27;100.00;94513.13;5093929;27;20041;-75
2021/07/20 02:38:48;;;;;;;42.67;25.25;;;;;;;18.13;100.00;94513.84;5108577;28;20035;-74
2021/07/20 02:41:22;;;;;;;35.57;23.67;;;;;;;18.28;100.00;94525.25;5094016;28;20051;-74
2021/07/20 02:43:53;;;;;;;44.08;24.77;;;;;;;18.21;100.00;94522.19;5092068;28;20496;-74
2021/07/20 02:46:20;;;;;;;33.92;24.35;;;;;;;18.23;100.00;94535.84;5111260;27;20084;-74
2021/07/20 02:48:51;;;;;;;36.03;24.48;;;;;;;18.11;100.00;94529.16;5111376;27;20035;-74
2021/07/20 02:51:23;;;;;;;;;;;;;;;18.18;100.00;94535.94;5092962;28;20050;-74
2021/07/20 02:53:54;;;;;;;38.45;25.52;;;;;;;18.03;100.00;94524.53;5075611;28;19924;-74
2021/07/20 02:56:23;;;;;;;47.33;26.60;;;;;;;17.91;100.00;94526.78;5071412;28;20048;-73
2021/07/20 02:59:01;;;;;;;39.15;26.85;;;;;;;17.95;100.00;94517.25;5072118;28;20051;-74
2021/07/20 03:01:54;;;;;;;38.83;27.38;;;;;;;18.05;100.00;94526.88;5066671;28;20049;-73
2021/07/20 03:04:23;;;;;;;40.50;26.63;;;;;;;17.94;100.00;94526.25;5074835;28;20044;-73
2021/07/20 03:06:55;;;;;;;45.47;27.52;;;;;;;17.93;100.00;94524.66;5072719;28;20126;-73
2021/07/20 03:09:24;;;;;;;38.22;26.00;;;;;;;17.86;100.00;94513.69;5069778;28;20071;-73
2021/07/20 03:12:14;;;;;;;38.47;26.67;;;;;;;18.00;100.00;94540.91;5073826;28;20524;-74
2021/07/20 03:14:43;;;;;;;42.55;26.75;;;;;;;18.04;100.00;94541.13;5070494;28;20044;-73
2021/07/20 03:17:39;;;;;;;39.25;26.02;;;;;;;17.98;100.00;94545.69;5069922;28;20053;-73
2021/07/20 03:20:07;;;;;;;41.10;25.75;;;;;;;17.78;100.00;94550.09;5066760;28;20042;-74
2021/07/20 03:22:41;;;;;;;36.40;25.48;;;;;;;17.85;100.00;94538.44;5070406;28;20051;-73
2021/07/20 03:25:15;;;;;;;43.50;26.25;;;;;;;17.78;100.00;94539.56;5069830;28;20078;-74
2021/07/20 03:27:45;;;;;;;33.90;24.77;;;;;;;17.74;100.00;94543.84;5072245;28;20445;-73
2021/07/20 03:30:17;;;;;;;39.78;25.52;;;;;;;17.68;100.00;94531.81;5070031;28;20053;-74
2021/07/20 03:32:47;;;;;;;39.95;24.52;;;;;;;17.74;100.00;94535.16;5069215;28;20471;-74
2021/07/20 03:35:33;;;;;;;38.05;26.00;;;;;;;17.68;100.00;94539.72;5071724;28;20573;-73
2021/07/20 03:38:01;;;;;;;40.63;25.70;;;;;;;17.71;100.00;94528.59;5070524;28;20040;-73
2021/07/20 03:40:29;;;;;;;41.67;25.95;;;;;;;17.73;100.00;94537.00;5070713;28;20048;-73
2021/07/20 03:42:58;;;;;;;40.15;24.90;;;;;;;17.76;100.00;94557.50;5072228;28;20122;-73
2021/07/20 03:45:26;;;;;;;41.30;25.88;;;;;;;17.86;100.00;94561.09;5070193;28;20494;-72
2021/07/20 03:47:54;;;;;;;35.55;25.40;;;;;;;17.85;100.00;94560.34;5070356;28;20506;-73
2021/07/20 03:50:49;;;;;;;42.42;26.48;;;;;;;17.86;100.00;94571.66;5070277;28;20056;-73
2021/07/20 03:53:16;;;;;;;40.22;25.88;;;;;;;17.94;100.00;94563.13;5079083;28;20048;-73
2021/07/20 03:55:52;;;;;;;39.33;25.35;;;;;;;18.07;100.00;94567.69;5085299;28;20047;-73
2021/07/20 03:58:20;;;;;;;39.10;25.38;;;;;;;18.10;100.00;94582.16;5086173;28;20050;-73
2021/07/20 04:00:52;;;;;;;46.67;27.35;;;;;;;18.13;100.00;94579.75;5085083;28;20060;-73
2021/07/20 04:03:26;;;;;;;;;;;;;;;18.14;100.00;94578.66;5086565;28;20063;-73
2021/07/20 04:06:08;;;;;;;49.00;25.08;;;;;;;18.20;100.00;94571.47;5087004;28;19927;-73
2021/07/20 04:08:54;;;;;;;38.47;25.08;;;;;;;18.10;100.00;94577.66;5088329;28;20143;-72
2021/07/20 04:11:29;;;;;;;39.67;25.08;;;;;;;18.05;100.00;94569.81;5073726;28;20051;-72
2021/07/20 04:13:57;;;;;;;38.90;25.55;;;;;;;18.14;100.00;94589.19;5092058;28;20461;-72
2021/07/20 04:16:37;;;;;;;38.97;24.83;;;;;;;18.08;100.00;94590.34;5077458;28;20055;-71
2021/07/20 04:19:05;;;;;;;41.13;26.77;;;;;;;18.08;100.00;94579.81;5088805;28;20044;-72
2021/07/20 04:21:50;;;;;;;40.92;27.65;;;;;;;18.17;100.00;94587.06;5086307;28;20543;-72
2021/07/20 04:24:18;;;;;;;45.58;29.42;;;;;;;18.17;100.00;94598.41;5086359;28;20513;-72
2021/07/20 04:26:47;;;;;;;40.78;25.27;;;;;;;18.24;100.00;94592.75;5088540;28;20055;-72
2021/07/20 04:29:14;;;;;;;40.03;27.13;;;;;;;18.36;100.00;94601.03;5086657;28;20125;-72
2021/07/20 04:31:45;;;;;;;52.75;28.27;;;;;;;18.43;100.00;94601.47;5085372;28;20047;-72
2021/07/20 04:34:13;;;;;;;44.35;28.00;;;;;;;18.39;100.00;94591.78;5084851;28;20048;-71
2021/07/20 04:36:40;;;;;;;39.38;26.80;;;;;;;18.50;100.00;94598.47;5082161;28;20044;-71
2021/07/20 04:39:28;;;;;;;38.63;25.23;;;;;;;18.41;100.00;94593.06;5083567;28;20127;-71
2021/07/20 04:41:58;;;;;;;42.25;25.00;;;;;;;18.49;100.00;94589.78;5084270;28;20059;-72
2021/07/20 04:44:25;;;;;;;50.13;29.27;;;;;;;18.54;100.00;94600.22;5086941;28;20048;-71
2021/07/20 04:47:10;;;;;;;42.40;27.67;;;;;;;18.66;100.00;94601.66;5084002;28;20524;-71
2021/07/20 04:49:41;;;;;;;44.92;28.20;;;;;;;18.75;100.00;94597.31;5083735;28;20164;-71
2021/07/20 04:52:09;;;;;;;37.67;25.77;;;;;;;18.85;100.00;94591.91;5084238;28;20493;-71
2021/07/20 04:54:40;;;;;;;34.67;25.02;;;;;;;18.94;100.00;94588.59;5082874;28;20748;-71
2021/07/20 04:57:08;;;;;;;35.30;24.92;;;;;;;18.98;100.00;94594.84;5083144;28;20039;-71
2021/07/20 04:59:38;;;;;;;37.38;25.48;;;;;;;19.14;100.00;94592.75;5086366;28;20044;-71
2021/07/20 05:02:13;;;;;;;36.92;25.75;;;;;;;19.27;100.00;94598.06;5083222;28;20140;-71
2021/07/20 05:04:42;;;;;;;36.42;25.02;;;;;;;19.27;100.00;94587.50;5083961;28;20054;-71
2021/07/20 05:07:13;;;;;;;37.13;24.30;;;;;;;19.46;100.00;94583.97;5086139;28;20480;-71
2021/07/20 05:09:49;;;;;;;37.63;22.70;;;;;;;19.54;100.00;94585.97;5089782;28;20062;-71
2021/07/20 05:12:18;;;;;;;29.10;20.83;;;;;;;19.68;100.00;94597.31;5091286;28;20036;-71
2021/07/20 05:14:53;;;;;;;28.42;20.77;;;;;;;19.63;100.00;94594.75;5089919;28;20072;-71
2021/07/20 05:17:37;;;;;;;28.67;20.58;;;;;;;19.77;100.00;94604.56;5087024;28;20506;-70
2021/07/20 05:20:08;;;;;;;22.83;18.58;;;;;;;19.74;100.00;94600.66;5086081;28;20044;-70
2021/07/20 05:22:59;;;;;;;26.85;20.90;;;;;;;19.83;100.00;94603.41;5087230;28;20086;-70
2021/07/20 05:25:26;;;;;;;27.92;21.15;;;;;;;19.80;100.00;94601.34;5085573;28;20123;-70
2021/07/20 05:27:56;;;;;;;31.40;20.65;;;;;;;19.70;100.00;94604.94;5086416;28;20036;-70
2021/07/20 05:30:25;;;;;;;26.58;20.58;;;;;;;19.73;100.00;94604.38;5086231;28;20048;-70
2021/07/20 05:32:53;;;;;;;26.02;20.65;;;;;;;19.75;100.00;94604.06;5086596;28;20443;-70
2021/07/20 05:35:30;;;;;;;28.98;20.75;;;;;;;19.86;100.00;94613.38;5085013;28;20089;-70
2021/07/20 05:37:58;;;;;;;28.30;19.92;;;;;;;19.74;100.00;94594.59;5085905;28;20127;-70
2021/07/20 05:40:25;;;;;;;25.08;19.15;;;;;;;19.90;100.00;94609.06;5082551;28;20067;-70
2021/07/20 05:42:57;;;;;;;26.70;19.27;;;;;;;20.02;100.00;94612.00;5083013;28;20044;-70
2021/07/20 05:45:32;;;;;;;27.67;17.38;;;;;;;20.07;100.00;94612.97;5084352;28;20036;-70
2021/07/20 05:48:00;;;;;;;22.88;17.88;;;;;;;20.26;100.00;94621.56;5084070;28;20040;-71
2021/07/20 05:50:41;;;;;;;41.63;21.05;;;;;;;20.44;100.00;94612.69;5084933;28;20079;-71
2021/07/20 05:53:31;;;;;;;32.33;21.35;;;;;;;20.39;100.00;94610.16;5072480;28;20051;-71
2021/07/20 05:56:17;;;;;;;41.67;31.08;;;;;;;20.55;100.00;94625.72;5067836;28;20062;-71
2021/07/20 05:58:54;;;;;;;34.35;22.63;;;;;;;20.74;100.00;94630.84;5068134;28;20056;-71
2021/07/20 06:01:20;;;;;;;23.02;18.15;;;;;;;20.89;100.00;94629.75;5067118;28;20076;-71
2021/07/20 06:03:55;;;;;;;25.20;17.80;;;;;;;20.83;98.68;94625.63;5067673;28;20075;-71
2021/07/20 06:06:35;;;;;;;21.92;17.38;;;;;;;20.80;97.64;94619.84;5064618;28;20054;-71
2021/07/20 06:09:02;;;;;;;25.60;19.23;;;;;;;20.89;98.73;94627.09;5064936;28;20055;-71
2021/07/20 06:11:32;;;;;;;32.55;20.33;;;;;;;20.97;98.20;94618.41;5067606;28;20044;-71
2021/07/20 06:14:01;;;;;;;21.48;17.38;;;;;;;21.02;96.63;94626.22;5070360;28;20044;-71
2021/07/20 06:16:28;;;;;;;25.67;20.08;;;;;;;21.02;95.46;94630.75;5066960;28;20498;-71
2021/07/20 06:18:55;;;;;;;29.48;20.63;;;;;;;21.04;96.86;94634.66;5066261;28;20037;-71
2021/07/20 06:21:24;;;;;;;26.13;20.75;;;;;;;21.01;96.61;94619.38;5066279;28;20075;-71
2021/07/20 06:23:53;;;;;;;30.55;22.05;;;;;;;21.35;98.25;94629.38;5064605;28;20565;-71
2021/07/20 06:26:24;;;;;;;32.83;23.90;;;;;;;21.56;96.83;94629.69;5061759;28;20056;-71
2021/07/20 06:28:57;;;;;;;24.08;19.48;;;;;;;21.65;92.51;94642.97;5063838;28;20117;-71
2021/07/20 06:31:25;;;;;;;23.77;19.17;;;;;;;21.51;93.18;94632.44;5064675;28;20055;-71
2021/07/20 06:33:54;;;;;;;27.27;20.85;;;;;;;21.33;94.42;94638.72;5066759;28;20043;-71
2021/07/20 06:36:22;;;;;;;33.15;22.80;;;;;;;21.31;94.86;94638.25;5064851;28;20101;-71
2021/07/20 06:38:50;;;;;;;29.35;21.73;;;;;;;21.28;95.81;94644.16;5065909;28;20064;-71
2021/07/20 06:41:17;;;;;;;28.40;19.15;;;;;;;21.37;94.42;94631.72;5065344;28;20163;-71
2021/07/20 06:43:46;;;;;;;24.35;18.17;;;;;;;21.68;93.41;94630.97;5063063;28;20497;-71
2021/07/20 06:46:17;;;;;;;28.15;20.67;;;;;;;21.79;91.64;94637.56;5064834;28;20048;-71
2021/07/20 06:48:46;;;;;;;33.38;22.55;;;;;;;21.67;92.16;94634.72;5062384;28;20036;-71
2021/07/20 06:51:13;;;;;;;36.00;22.70;;;;;;;21.62;91.77;94637.50;5062944;28;20036;-71
2021/07/20 06:53:40;;;;;;;31.20;22.33;;;;;;;21.60;92.61;94637.78;5089733;28;20044;-71
2021/07/20 06:56:10;;;;;;;32.17;23.23;;;;;;;21.64;93.43;94640.63;5107231;28;20045;-71
2021/07/20 06:58:40;;;;;;;31.25;23.02;;;;;;;21.82;93.93;94636.16;5107145;28;20038;-71
2021/07/20 07:01:10;;;;;;;27.85;22.23;;;;;;;22.08;92.72;94654.81;5108710;27;20039;-71
2021/07/20 07:03:56;;;;;;;31.02;23.25;;;;;;;22.22;92.43;94650.19;5111166;27;20039;-71
2021/07/20 07:06:25;;;;;;;29.30;23.45;;;;;;;22.45;90.16;94652.72;5108951;27;20045;-71
2021/07/20 07:08:54;;;;;;;31.98;22.17;;;;;;;22.65;87.07;94657.44;5109060;27;20059;-71
2021/07/20 07:11:23;;;;;;;29.73;22.20;;;;;;;22.53;86.97;94654.63;5109597;27;20043;-71
2021/07/20 07:13:51;;;;;;;32.08;23.70;;;;;;;22.50;87.26;94655.25;5107205;27;20036;-71
2021/07/20 07:16:19;;;;;;;33.10;24.30;;;;;;;22.50;86.65;94666.63;5107978;28;20063;-71
2021/07/20 07:18:47;;;;;;;34.53;23.20;;;;;;;22.50;87.29;94655.25;5108801;27;20082;-71
2021/07/20 07:21:16;;;;;;;29.90;22.45;;;;;;;22.74;88.15;94660.09;5088802;28;20138;-71
2021/07/20 07:23:43;;;;;;;28.27;23.45;;;;;;;22.92;86.14;94655.56;5107506;28;20040;-71
2021/07/20 07:26:13;;;;;;;33.88;24.35;;;;;;;23.08;83.85;94655.91;5109118;28;20039;-71
2021/07/20 07:28:43;;;;;;;27.05;22.33;;;;;;;23.21;83.40;94662.13;5108072;28;20032;-71
2021/07/20 07:31:11;;;;;;;30.13;22.67;;;;;;;23.03;83.37;94662.13;5107985;28;20047;-71
2021/07/20 07:33:40;;;;;;;33.45;21.90;;;;;;;23.18;83.08;94665.44;5109281;27;20054;-70
2021/07/20 07:36:09;;;;;;;26.27;22.02;;;;;;;23.13;82.30;94654.97;5108363;28;20063;-71
2021/07/20 07:38:38;;;;;;;28.23;21.77;;;;;;;23.18;82.28;94657.47;5109172;28;20040;-70
2021/07/20 07:41:06;;;;;;;30.13;22.92;;;;;;;23.42;82.37;94673.66;5090891;28;20038;-70
2021/07/20 07:43:34;;;;;;;23.08;19.13;;;;;;;23.14;78.46;94669.78;5108329;28;20040;-70
2021/07/20 07:46:03;;;;;;;24.45;18.75;;;;;;;23.07;79.11;94665.75;5108330;27;20040;-70
2021/07/20 07:48:36;;;;;;;26.45;19.58;;;;;;;23.01;81.02;94659.03;5108782;27;20058;-69
2021/07/20 07:51:08;;;;;;;25.05;19.98;;;;;;;23.30;80.64;94670.88;5108608;28;20046;-69
2021/07/20 07:53:36;;;;;;;25.67;19.05;;;;;;;23.48;79.34;94667.09;5107255;28;20130;-69
2021/07/20 07:56:04;;;;;;;22.92;17.98;;;;;;;23.73;76.54;94659.34;5107564;28;20043;-69
2021/07/20 07:58:31;;;;;;;20.98;17.88;;;;;;;23.95;78.17;94673.53;5107432;27;20035;-70
2021/07/20 08:01:00;;;;;;;24.35;17.88;;;;;;;23.63;77.98;94662.38;5108685;28;20138;-70
2021/07/20 08:03:29;;;;;;;24.00;18.15;;;;;;;23.71;77.84;94658.88;5113444;27;20043;-70
2021/07/20 08:05:57;;;;;;;23.35;17.08;;;;;;;23.66;77.31;94661.72;5107950;28;20048;-71
2021/07/20 08:08:25;;;;;;;21.90;16.10;;;;;;;23.74;76.66;94660.91;5109856;27;20042;-70
2021/07/20 08:10:53;;;;;;;22.42;18.10;;;;;;;23.81;76.18;94666.53;5086590;28;20459;-70
2021/07/20 08:13:23;;;;;;;23.45;17.33;;;;;;;23.95;77.46;94652.25;5109137;27;20027;-71
2021/07/20 08:15:52;;;;;;;20.98;17.23;;;;;;;24.20;76.07;94654.00;5107209;27;20062;-70
2021/07/20 08:18:22;;;;;;;20.67;16.88;;;;;;;24.38;77.18;94637.94;5109297;28;20216;-71
2021/07/20 08:21:00;;;;;;;21.05;15.88;;;;;;;24.54;73.60;94651.47;5112005;27;20047;-71
2021/07/20 08:23:27;;;;;;;17.40;15.18;;;;;;;24.47;72.39;94640.53;5110328;27;20045;-70
2021/07/20 08:25:59;;;;;;;19.10;15.85;;;;;;;24.27;72.92;94647.41;5110298;27;20047;-70
2021/07/20 08:28:33;;;;;;;16.85;15.05;;;;;;;24.52;72.23;94649.09;5108180;27;20031;-70
2021/07/20 08:31:02;;;;;;;17.33;13.93;;;;;;;24.84;74.14;94654.88;5107692;28;20055;-70
2021/07/20 08:33:48;;;;;;;19.27;13.55;;;;;;;24.59;74.13;94664.59;5102809;27;20062;-70
2021/07/20 08:36:17;;;;;;;20.98;14.70;;;;;;;24.32;72.76;94655.19;5104939;27;20420;-70
2021/07/20 08:38:50;;;;;;;17.67;13.50;;;;;;;24.47;73.08;94651.97;5107082;27;20051;-70
2021/07/20 08:41:35;;;;;;;20.25;14.40;;;;;;;24.56;71.21;94651.94;5105987;27;20042;-70
2021/07/20 08:44:35;;;;;;;17.02;13.32;;;;;;;24.59;71.81;94660.03;5105109;28;20135;-69
2021/07/20 08:47:16;;;;;;;16.02;12.65;;;;;;;24.82;71.51;94654.41;5107726;27;20118;-70
2021/07/20 08:49:58;;;;;;;16.98;12.75;;;;;;;25.13;70.39;94655.88;5106704;27;20062;-70
2021/07/20 08:52:41;;;;;;;15.13;12.55;;;;;;;25.20;69.24;94656.13;5108073;27;20524;-70
2021/07/20 08:55:17;;;;;;;14.52;11.88;;;;;;;25.36;67.34;94657.09;5105976;28;20047;-70
2021/07/20 08:58:04;;;;;;;13.38;10.57;;;;;;;25.22;65.81;94643.25;5103018;27;20051;-70
2021/07/20 09:00:37;;;;;;;13.07;11.48;;;;;;;25.53;66.74;94656.16;5110131;27;20035;-70
2021/07/20 09:03:32;;;;;;;13.32;11.60;;;;;;;25.60;65.39;94652.91;5109888;27;20061;-70
2021/07/20 09:06:04;;;;;;;16.92;11.45;;;;;;;25.84;65.92;94662.06;5107699;27;20063;-69
2021/07/20 09:08:38;;;;;;;13.07;10.10;;;;;;;25.92;65.66;94663.84;5106379;27;20070;-70
2021/07/20 09:11:04;;;;;;;;;;;;;;;26.17;63.36;94664.66;5103062;28;20050;-70
2021/07/20 09:13:34;;;;;;;12.70;9.75;;;;;;;26.36;64.55;94650.75;5107298;27;19964;-70
2021/07/20 09:16:18;;;;;;;14.68;9.13;;;;;;;26.49;61.29;94654.19;5106895;27;20501;-70
2021/07/20 09:18:57;;;;;;;12.45;8.77;;;;;;;26.52;61.03;94654.31;5107679;27;20525;-70
2021/07/20 09:21:29;;;;;;;11.02;8.32;;;;;;;26.82;61.74;94646.00;5107605;27;20587;-71
2021/07/20 09:24:16;;;;;;;12.75;9.05;;;;;;;27.16;58.92;94657.25;5108623;27;20055;-71
2021/07/20 09:26:53;;;;;;;10.48;8.73;;;;;;;27.03;59.39;94650.41;5110621;27;20038;-72
2021/07/20 09:29:25;;;;;;;12.13;8.88;;;;;;;27.08;59.67;94650.13;5110431;27;20480;-70
2021/07/20 09:32:04;;;;;;;13.68;9.18;;;;;;;27.32;59.95;94645.84;5111935;27;20038;-70
2021/07/20 09:34:55;;;;;;;9.48;7.40;;;;;;;27.54;57.93;94655.97;5110036;27;20504;-71
2021/07/20 09:37:38;;;;;;;9.32;7.60;;;;;;;27.63;55.27;94659.25;5093711;27;20058;-71
2021/07/20 09:40:38;;;;;;;9.82;7.60;;;;;;;27.54;56.69;94650.63;5096196;28;20055;-71
2021/07/20 09:43:24;;;;;;;8.52;7.68;;;;;;;27.82;54.45;94647.09;5109106;27;20043;-71
2021/07/20 09:45:59;;;;;;;12.38;7.53;;;;;;;28.08;54.56;94637.81;5118321;27;20047;-71
2021/07/20 09:48:42;;;;;;;7.53;6.53;;;;;;;27.97;54.08;94641.00;5112266;27;20031;-70
2021/07/20 09:51:08;;;;;;;10.60;7.28;;;;;;;27.94;54.27;94630.22;5110043;28;20040;-71
2021/07/20 09:53:50;;;;;;;11.75;6.97;;;;;;;28.00;53.33;94642.19;5108770;28;20043;-71
2021/07/20 09:56:32;;;;;;;9.30;7.55;;;;;;;28.26;52.35;94638.97;5110004;28;20050;-70
2021/07/20 09:59:27;;;;;;;11.90;7.35;;;;;;;28.28;52.02;94635.94;5108213;28;20046;-70
2021/07/20 10:01:57;;;;;;;9.57;7.40;;;;;;;28.19;53.81;94633.47;5109778;28;20061;-71
2021/07/20 10:04:32;;;;;;;8.40;7.57;;;;;;;28.45;52.08;94629.41;5110559;28;20043;-70
2021/07/20 10:07:36;;;;;;;8.98;7.45;;;;;;;28.37;50.71;94631.94;5109784;28;20047;-71
2021/07/20 10:10:06;;;;;;;12.10;8.07;;;;;;;28.70;52.40;94635.34;5107378;28;20035;-71
2021/07/20 10:13:01;;;;;;;14.60;8.43;;;;;;;28.44;49.88;94627.88;5108110;28;20059;-70
2021/07/20 10:15:46;;;;;;;9.05;7.38;;;;;;;28.25;51.95;94623.25;5110209;28;20047;-70
2021/07/20 10:18:21;;;;;;;10.43;8.55;;;;;;;28.34;49.41;94624.63;5109096;28;20051;-71
2021/07/20 10:20:57;;;;;;;7.93;6.78;;;;;;;28.55;50.50;94628.91;5087123;28;20081;-70
2021/07/20 10:23:43;;;;;;;9.20;6.97;;;;;;;28.75;50.19;94621.66;5105985;28;20046;-70
2021/07/20 10:26:27;;;;;;;13.85;7.90;;;;;;;28.71;50.83;94620.81;5105286;28;20105;-68
2021/07/20 10:28:56;;;;;;;9.27;8.18;;;;;;;28.77;50.83;94627.44;5103228;27;20046;-71
2021/07/20 10:31:36;;;;;;;14.35;8.30;;;;;;;28.81;50.50;94619.47;5111278;27;20051;-70
2021/07/20 10:34:07;;;;;;;12.05;7.78;;;;;;;28.69;49.99;94618.50;5091894;27;20440;-71
2021/07/20 10:36:53;;;;;;;9.07;7.50;;;;;;;28.58;49.18;94625.53;5110035;27;20060;-69
2021/07/20 10:39:25;;;;;;;8.50;7.32;;;;;;;28.83;48.26;94623.38;5105692;28;20481;-69
2021/07/20 10:42:02;;;;;;;12.25;8.30;;;;;;;28.96;48.35;94600.66;5105998;27;20055;-69
2021/07/20 10:44:42;;;;;;;8.25;6.60;;;;;;;29.11;47.46;94612.41;5109257;27;20485;-69
2021/07/20 10:47:09;;;;;;;10.48;7.38;;;;;;;29.35;47.98;94618.59;5091436;27;20725;-69
2021/07/20 10:49:54;;;;;;;9.52;8.40;;;;;;;29.42;47.11;94620.66;5109174;27;20552;-69
2021/07/20 10:52:21;;;;;;;14.07;8.32;;;;;;;29.24;49.12;94615.72;5113175;27;20552;-69
2021/07/20 10:54:59;;;;;;;9.10;7.25;;;;;;;29.09;45.65;94609.31;5107306;27;20428;-69
2021/07/20 10:57:33;;;;;;;9.25;7.25;;;;;;;29.05;45.39;94607.69;5105022;27;20447;-69
2021/07/20 11:00:06;;;;;;;;;;;;;;;28.95;47.84;94617.06;5109334;27;20393;-69
2021/07/20 11:03:18;;;;;;;9.95;8.40;;;;;;;29.13;46.82;94604.00;5108074;27;19920;-69
2021/07/20 11:05:49;;;;;;;10.70;8.05;;;;;;;29.24;46.37;94614.97;5108734;27;20043;-69
2021/07/20 11:08:18;;;;;;;12.65;8.88;;;;;;;29.59;47.51;94609.44;5110132;28;20417;-71
2021/07/20 11:10:54;;;;;;;10.40;8.63;;;;;;;30.00;47.56;94606.28;5109331;27;20040;-71
2021/07/20 11:13:33;;;;;;;10.35;8.05;;;;;;;29.80;45.23;94608.25;5108368;27;20097;-71
2021/07/20 11:16:07;;;;;;;11.20;10.10;;;;;;;30.09;46.82;94612.19;5107798;28;20040;-71
2021/07/20 11:18:36;;;;;;;10.65;8.35;;;;;;;30.05;43.86;94603.28;5108167;27;20044;-71
2021/07/20 11:21:07;;;;;;;11.00;8.60;;;;;;;30.06;43.83;94600.25;5107529;28;20579;-72
2021/07/20 11:23:39;;;;;;;11.02;8.75;;;;;;;30.05;43.62;94603.28;5107967;27;20042;-71
2021/07/20 11:26:08;;;;;;;12.93;8.85;;;;;;;29.96;44.50;94614.28;5107376;27;20035;-71
2021/07/20 11:28:37;;;;;;;10.35;9.10;;;;;;;29.93;44.86;94591.63;5108967;27;20485;-71
2021/07/20 11:31:09;;;;;;;17.15;9.15;;;;;;;30.03;44.78;94605.56;5088668;28;20401;-71
2021/07/20 11:33:45;;;;;;;11.15;8.90;;;;;;;30.09;44.28;94604.91;5106258;27;20115;-71
2021/07/20 11:36:18;;;;;;;11.25;9.30;;;;;;;30.43;43.68;94606.91;5107636;28;20044;-71
2021/07/20 11:38:48;;;;;;;11.82;8.52;;;;;;;30.34;42.11;94603.72;5108639;28;20040;-71
2021/07/20 11:41:22;;;;;;;12.45;8.93;;;;;;;30.43;41.79;94596.16;5107287;28;20062;-71
2021/07/20 11:44:15;;;;;;;9.07;7.78;;;;;;;30.53;42.58;94603.59;5108483;27;20053;-71
2021/07/20 11:47:04;;;;;;;11.43;8.10;;;;;;;30.50;42.12;94607.00;5101934;27;20048;-71
2021/07/20 11:49:58;;;;;;;10.23;8.70;;;;;;;30.63;41.17;94605.66;5106682;27;20419;-71